Time;durP1;ratioP1;P1;durP2;ratioP2;P2;SDS_P1;SDS_P2;PMS_P1;PMS_P2;Temp;Humidity;BMP_temperature;BMP_pressure;BME280_temperature;BME280_humidity;BME280_pressure;Samples;Min_cycle;Max_cycle;Signal;HPM_P1;HPM_P2
2022/08/24 00:00:21;;;;;;;12.38;6.70;;;18.80;99.90;;;;;;4964055;28;20039;-85
2022/08/24 00:02:48;;;;;;;12.10;6.47;;;18.80;99.90;;;;;;4994968;28;20011;-85
2022/08/24 00:05:15;;;;;;;11.63;7.32;;;18.80;99.90;;;;;;4993780;28;20042;-83
2022/08/24 00:07:41;;;;;;;10.00;6.75;;;18.80;99.90;;;;;;4994086;28;20023;-84
2022/08/24 00:10:10;;;;;;;9.73;6.38;;;18.80;99.90;;;;;;4996266;28;20035;-85
2022/08/24 00:12:36;;;;;;;10.55;6.32;;;18.80;99.90;;;;;;4994090;28;20084;-85
2022/08/24 00:15:04;;;;;;;9.00;6.28;;;18.80;99.90;;;;;;4994383;28;20085;-83
2022/08/24 00:17:30;;;;;;;11.30;6.78;;;18.80;99.90;;;;;;4995874;28;20034;-85
2022/08/24 00:19:56;;;;;;;8.82;6.60;;;18.80;99.90;;;;;;4995484;28;20049;-85
2022/08/24 00:22:22;;;;;;;9.98;6.80;;;18.80;99.90;;;;;;4978426;28;20027;-85
2022/08/24 00:24:47;;;;;;;9.68;6.28;;;18.80;99.90;;;;;;4994446;28;20022;-84
2022/08/24 00:27:13;;;;;;;9.43;6.13;;;18.80;99.90;;;;;;4994513;28;20034;-83
2022/08/24 00:29:39;;;;;;;13.20;6.45;;;18.80;99.90;;;;;;4994382;28;20050;-85
2022/08/24 00:32:05;;;;;;;9.05;6.25;;;18.80;99.90;;;;;;4975958;28;20026;-85
2022/08/24 00:34:31;;;;;;;8.52;5.97;;;18.80;99.90;;;;;;4993670;28;20030;-84
2022/08/24 00:36:57;;;;;;;9.02;6.65;;;18.90;99.90;;;;;;4975915;28;20023;-84
2022/08/24 00:39:23;;;;;;;9.98;6.38;;;18.90;99.90;;;;;;4957941;28;20050;-87
2022/08/24 00:41:50;;;;;;;9.13;6.20;;;18.90;99.90;;;;;;4974296;28;20035;-85
2022/08/24 00:44:18;;;;;;;8.60;6.10;;;18.90;99.90;;;;;;4990920;28;20090;-87
2022/08/24 00:46:52;;;;;;;9.70;6.32;;;18.90;99.90;;;;;;4991313;28;20049;-85
2022/08/24 00:49:39;;;;;;;11.38;6.88;;;18.90;99.90;;;;;;4991088;28;20030;-85
2022/08/24 00:54:42;;;;;;;9.63;6.38;;;19.00;99.90;;;;;;4962510;28;20050;-84
2022/08/24 00:57:10;;;;;;;8.35;6.13;;;19.00;99.90;;;;;;4993763;28;20037;-83
2022/08/24 00:59:56;;;;;;;9.18;5.70;;;18.90;99.90;;;;;;4962631;28;20040;-85
2022/08/24 01:02:29;;;;;;;11.45;6.20;;;19.00;99.90;;;;;;4984549;28;20468;-82
2022/08/24 01:04:58;;;;;;;9.70;5.85;;;19.00;99.90;;;;;;4985279;28;20039;-83
2022/08/24 01:07:27;;;;;;;7.47;5.72;;;19.00;99.90;;;;;;4985625;28;20069;-84
2022/08/24 01:09:56;;;;;;;7.05;5.10;;;19.00;99.90;;;;;;4977644;28;20031;-83
2022/08/24 01:12:25;;;;;;;8.75;6.13;;;19.00;99.90;;;;;;4962954;28;20053;-85
2022/08/24 01:14:51;;;;;;;7.78;6.07;;;19.00;99.90;;;;;;4976912;28;20038;-85
2022/08/24 01:20:05;;;;;;;10.77;5.73;;;19.00;99.90;;;;;;4967570;28;20038;-83
2022/08/24 01:23:01;;;;;;;9.45;5.97;;;18.90;99.90;;;;;;4994685;28;20019;-84
2022/08/24 01:25:29;;;;;;;9.45;5.93;;;18.90;99.90;;;;;;4970627;28;20026;-85
2022/08/24 01:27:59;;;;;;;9.57;5.97;;;18.90;99.90;;;;;;4991645;28;20026;-84
2022/08/24 01:30:26;;;;;;;7.93;5.18;;;18.90;99.90;;;;;;4962717;28;20027;-84
2022/08/24 01:32:57;;;;;;;8.30;5.80;;;18.90;99.90;;;;;;4961935;28;20086;-85
2022/08/24 01:35:23;;;;;;;7.15;5.30;;;18.90;99.90;;;;;;4977936;28;20033;-83
2022/08/24 01:37:51;;;;;;;8.65;5.38;;;18.90;99.90;;;;;;4946552;29;20031;-82
2022/08/24 01:40:18;;;;;;;7.55;5.05;;;18.90;99.90;;;;;;4973636;28;20039;-83
2022/08/24 01:42:50;;;;;;;10.82;5.57;;;18.90;99.90;;;;;;4944750;29;20031;-84
2022/08/24 01:45:17;;;;;;;9.75;5.65;;;18.90;99.90;;;;;;4955600;28;20105;-85
2022/08/24 01:47:43;;;;;;;7.47;5.25;;;18.90;99.90;;;;;;4972395;28;20035;-84
2022/08/24 01:50:09;;;;;;;8.10;5.60;;;18.90;99.90;;;;;;4977377;28;20070;-84
2022/08/24 01:52:37;;;;;;;9.07;5.28;;;18.90;99.90;;;;;;4978691;28;20038;-84
2022/08/24 01:55:06;;;;;;;6.10;4.93;;;18.90;99.90;;;;;;4973496;28;20039;-83
2022/08/24 01:57:32;;;;;;;10.27;5.20;;;18.90;99.90;;;;;;4968506;28;20073;-85
2022/08/24 01:59:59;;;;;;;7.88;4.88;;;19.00;99.90;;;;;;4975828;28;20034;-84
2022/08/24 02:02:28;;;;;;;6.82;4.97;;;19.00;99.90;;;;;;4962522;28;20513;-84
2022/08/24 02:04:54;;;;;;;7.35;4.78;;;19.00;99.90;;;;;;4953357;28;20034;-85
2022/08/24 02:07:21;;;;;;;9.23;5.47;;;19.00;99.90;;;;;;4972946;28;20019;-85
2022/08/24 02:09:48;;;;;;;9.20;5.97;;;18.90;99.90;;;;;;4953828;28;20296;-83
2022/08/24 02:12:16;;;;;;;7.57;4.88;;;19.00;99.90;;;;;;4959866;28;20026;-84
2022/08/24 02:14:42;;;;;;;7.35;5.32;;;19.00;99.90;;;;;;4980682;28;20094;-85
2022/08/24 02:17:09;;;;;;;7.82;5.55;;;19.00;99.90;;;;;;4983810;28;20106;-83
2022/08/24 02:19:36;;;;;;;13.63;5.47;;;19.00;99.90;;;;;;4989396;28;20035;-84
2022/08/24 02:22:02;;;;;;;9.07;5.90;;;18.90;99.90;;;;;;4980975;28;20033;-86
2022/08/24 02:24:30;;;;;;;10.02;6.00;;;18.90;99.90;;;;;;4974380;29;20051;-84
2022/08/24 02:26:57;;;;;;;7.80;5.47;;;18.90;99.90;;;;;;4975608;28;20031;-84
2022/08/24 02:29:23;;;;;;;8.60;5.53;;;18.90;99.90;;;;;;4983696;28;20098;-84
2022/08/24 02:31:49;;;;;;;9.00;5.82;;;19.00;99.90;;;;;;4947001;28;20023;-84
2022/08/24 02:34:15;;;;;;;8.10;5.80;;;18.90;99.90;;;;;;4977059;28;20037;-84
2022/08/24 02:36:41;;;;;;;9.63;6.07;;;18.90;99.90;;;;;;4979524;28;20406;-85
2022/08/24 02:39:08;;;;;;;8.57;5.55;;;18.90;99.90;;;;;;4981636;28;20058;-84
2022/08/24 02:41:36;;;;;;;8.80;5.78;;;18.90;99.90;;;;;;4947669;28;20126;-85
2022/08/24 02:44:03;;;;;;;7.03;5.40;;;18.90;99.90;;;;;;4930738;29;20104;-84
2022/08/24 02:46:30;;;;;;;7.07;5.45;;;19.00;99.90;;;;;;4964657;28;20037;-84
2022/08/24 02:48:59;;;;;;;6.03;5.03;;;19.00;99.90;;;;;;4973791;28;20053;-85
2022/08/24 02:51:29;;;;;;;9.63;5.97;;;18.90;99.90;;;;;;4976689;28;20031;-84
2022/08/24 02:53:56;;;;;;;8.10;5.68;;;18.90;99.90;;;;;;4960832;28;20047;-86
2022/08/24 02:56:24;;;;;;;8.18;5.68;;;18.90;99.90;;;;;;4968302;28;20071;-84
2022/08/24 02:58:51;;;;;;;8.73;5.95;;;19.00;99.90;;;;;;4985397;28;20107;-84
2022/08/24 03:01:17;;;;;;;8.25;5.28;;;19.00;99.90;;;;;;4964365;28;20046;-83
2022/08/24 03:03:45;;;;;;;8.90;5.55;;;19.00;99.90;;;;;;4964999;28;20019;-84
2022/08/24 03:06:11;;;;;;;7.82;5.85;;;19.10;99.90;;;;;;4978348;28;20031;-85
2022/08/24 03:08:37;;;;;;;7.50;5.38;;;19.00;99.90;;;;;;4975930;28;20134;-84
2022/08/24 03:11:04;;;;;;;8.43;5.85;;;19.00;99.90;;;;;;4964018;28;20073;-83
2022/08/24 03:13:31;;;;;;;7.90;6.00;;;19.00;99.90;;;;;;4977903;28;20054;-83
2022/08/24 03:15:58;;;;;;;9.20;5.80;;;19.00;99.90;;;;;;4972131;28;20391;-85
2022/08/24 03:18:26;;;;;;;9.55;6.13;;;19.00;99.90;;;;;;4963547;28;20030;-85
2022/08/24 03:20:53;;;;;;;7.75;5.68;;;19.00;99.90;;;;;;4957686;28;20085;-85
2022/08/24 03:23:19;;;;;;;10.73;7.35;;;19.00;99.90;;;;;;4963064;28;20041;-83
2022/08/24 03:25:46;;;;;;;9.48;6.80;;;19.00;99.90;;;;;;4976871;28;20023;-85
2022/08/24 03:28:12;;;;;;;9.13;6.22;;;19.00;99.90;;;;;;4963887;28;20038;-83
2022/08/24 03:30:39;;;;;;;10.55;7.43;;;19.00;99.90;;;;;;4964887;28;20027;-84
2022/08/24 03:33:06;;;;;;;9.15;6.70;;;19.00;99.90;;;;;;4971517;28;20507;-84
2022/08/24 03:35:32;;;;;;;10.95;6.72;;;19.00;99.90;;;;;;4948854;29;20047;-85
2022/08/24 03:37:59;;;;;;;9.82;6.45;;;19.00;99.90;;;;;;4955642;28;20094;-85
2022/08/24 03:40:25;;;;;;;9.38;6.78;;;19.00;99.90;;;;;;4948077;28;20030;-84
2022/08/24 03:42:54;;;;;;;11.30;7.00;;;19.10;99.90;;;;;;4963197;28;20066;-84
2022/08/24 03:45:21;;;;;;;13.57;6.97;;;19.10;99.90;;;;;;4975631;28;20031;-84
2022/08/24 03:47:47;;;;;;;11.52;6.80;;;19.00;99.90;;;;;;4965178;28;20026;-85
2022/08/24 03:50:13;;;;;;;11.30;6.93;;;19.00;99.90;;;;;;4963768;28;20115;-85
2022/08/24 03:52:40;;;;;;;10.80;6.18;;;19.00;99.90;;;;;;4971624;28;20027;-85
2022/08/24 03:55:12;;;;;;;13.10;6.78;;;19.00;99.90;;;;;;4968991;28;20070;-83
2022/08/24 03:57:38;;;;;;;9.65;5.70;;;19.00;99.90;;;;;;4964633;28;20102;-84
2022/08/24 04:00:06;;;;;;;9.43;6.05;;;18.90;99.90;;;;;;4960698;28;20058;-84
2022/08/24 04:02:40;;;;;;;11.10;6.28;;;18.90;99.90;;;;;;4956581;28;20050;-83
2022/08/24 04:05:09;;;;;;;7.85;5.63;;;18.90;99.90;;;;;;4951136;29;20031;-83
2022/08/24 04:07:35;;;;;;;10.73;6.78;;;18.80;99.90;;;;;;4957529;28;20096;-83
2022/08/24 04:10:01;;;;;;;9.57;6.28;;;18.80;99.90;;;;;;4971922;28;20055;-83
2022/08/24 04:12:28;;;;;;;9.73;6.30;;;18.90;99.90;;;;;;4968601;28;20034;-83
2022/08/24 04:14:57;;;;;;;12.30;5.97;;;18.80;99.90;;;;;;4949611;28;20069;-83
2022/08/24 04:17:24;;;;;;;8.57;6.30;;;18.90;99.90;;;;;;4968043;28;20062;-85
2022/08/24 04:19:56;;;;;;;10.68;6.78;;;18.90;99.90;;;;;;4970192;28;20035;-85
2022/08/24 04:22:25;;;;;;;9.95;6.45;;;18.90;99.90;;;;;;4952091;28;20066;-85
2022/08/24 04:24:51;;;;;;;10.10;6.55;;;18.90;99.90;;;;;;4978895;28;20130;-83
2022/08/24 04:27:17;;;;;;;9.45;6.10;;;18.90;99.90;;;;;;4956908;29;20042;-84
2022/08/24 04:29:43;;;;;;;11.07;6.57;;;18.90;99.90;;;;;;4967478;28;20027;-88
2022/08/24 04:32:09;;;;;;;8.85;6.68;;;19.00;99.90;;;;;;4957301;28;20035;-84
2022/08/24 04:34:35;;;;;;;9.45;6.75;;;18.90;99.90;;;;;;4968357;28;20054;-83
2022/08/24 04:37:01;;;;;;;12.57;6.90;;;19.00;99.90;;;;;;4972287;28;20039;-84
2022/08/24 04:39:28;;;;;;;11.98;6.60;;;19.00;99.90;;;;;;4969534;28;20027;-84
2022/08/24 04:42:23;;;;;;;8.93;6.67;;;19.00;99.90;;;;;;4982193;28;20053;-83
2022/08/24 04:44:49;;;;;;;14.27;6.85;;;19.00;99.90;;;;;;4962400;28;20107;-83
2022/08/24 04:47:19;;;;;;;9.80;6.68;;;19.00;99.90;;;;;;4968363;28;20023;-82
2022/08/24 04:49:46;;;;;;;8.95;5.90;;;19.10;99.90;;;;;;4964235;28;20091;-84
2022/08/24 04:52:12;;;;;;;13.20;7.15;;;19.10;99.90;;;;;;4977551;28;20031;-80
2022/08/24 04:54:40;;;;;;;8.95;6.25;;;19.10;99.90;;;;;;4969036;28;20032;-82
2022/08/24 04:57:19;;;;;;;14.10;6.60;;;19.10;99.90;;;;;;4941139;29;20024;-83
2022/08/24 04:59:46;;;;;;;10.63;6.25;;;19.10;99.90;;;;;;4956912;29;20046;-82
2022/08/24 05:02:12;;;;;;;9.02;6.35;;;19.10;99.90;;;;;;4977586;28;20054;-84
2022/08/24 05:04:38;;;;;;;11.57;6.30;;;19.20;99.90;;;;;;4965888;28;20031;-83
2022/08/24 05:07:05;;;;;;;8.00;6.13;;;19.20;99.90;;;;;;4950736;29;20023;-83
2022/08/24 05:09:32;;;;;;;11.80;7.03;;;19.30;99.90;;;;;;4972187;28;20415;-84
2022/08/24 05:12:00;;;;;;;9.43;6.40;;;19.30;99.90;;;;;;4972350;28;20031;-85
2022/08/24 05:14:31;;;;;;;9.23;5.80;;;19.40;99.90;;;;;;4956723;29;20134;-85
2022/08/24 05:16:57;;;;;;;11.85;6.50;;;19.50;99.90;;;;;;4993197;28;20018;-84
2022/08/24 05:19:23;;;;;;;9.40;6.28;;;19.50;99.90;;;;;;4968978;28;20071;-83
2022/08/24 05:21:49;;;;;;;8.52;6.18;;;19.60;99.90;;;;;;4974930;28;20027;-82
2022/08/24 05:24:15;;;;;;;12.52;6.40;;;19.70;99.90;;;;;;4994335;28;20027;-84
2022/08/24 05:26:42;;;;;;;16.20;6.13;;;19.80;99.90;;;;;;4979046;28;20038;-81
2022/08/24 05:29:09;;;;;;;19.65;6.50;;;19.80;99.90;;;;;;4976750;28;20022;-85
2022/08/24 05:31:45;;;;;;;9.20;5.82;;;20.00;99.90;;;;;;4977400;28;20102;-82
2022/08/24 05:34:12;;;;;;;9.20;5.45;;;20.10;99.90;;;;;;4973962;28;20035;-83
2022/08/24 05:36:39;;;;;;;7.63;5.05;;;20.30;99.90;;;;;;4975073;28;20026;-84
2022/08/24 05:39:09;;;;;;;11.13;5.07;;;20.40;99.90;;;;;;4973996;28;20034;-83
2022/08/24 05:41:41;;;;;;;11.48;5.57;;;20.50;99.90;;;;;;4993779;28;20027;-85
2022/08/24 05:44:14;;;;;;;12.10;5.50;;;20.60;99.90;;;;;;4976544;28;20050;-84
2022/08/24 05:46:42;;;;;;;7.65;5.60;;;20.80;99.90;;;;;;4989797;28;20039;-84
2022/08/24 05:49:08;;;;;;;10.00;6.15;;;20.90;99.90;;;;;;4991433;28;20082;-89
2022/08/24 05:51:35;;;;;;;7.68;5.13;;;20.90;99.90;;;;;;4962177;29;20038;-86
2022/08/24 05:54:07;;;;;;;12.63;5.57;;;20.90;99.90;;;;;;4958674;29;20119;-86
2022/08/24 05:56:45;;;;;;;10.77;5.38;;;20.80;99.90;;;;;;4944701;29;20054;-87
2022/08/24 05:59:13;;;;;;;7.80;5.70;;;20.80;99.90;;;;;;4962002;28;20090;-85
2022/08/24 06:01:40;;;;;;;8.60;6.68;;;20.70;99.90;;;;;;4946603;28;20115;-88
2022/08/24 06:04:06;;;;;;;8.48;5.15;;;20.70;99.90;;;;;;4978916;28;20118;-89
2022/08/24 06:06:34;;;;;;;10.02;5.10;;;20.70;99.90;;;;;;4961811;28;20043;-87
2022/08/24 06:09:01;;;;;;;7.30;5.40;;;20.60;99.90;;;;;;4961723;28;20035;-88
2022/08/24 06:11:36;;;;;;;8.52;5.63;;;20.50;99.90;;;;;;4961093;29;20028;-86
2022/08/24 06:14:11;;;;;;;7.93;5.60;;;20.50;99.90;;;;;;4959663;29;20045;-87
2022/08/24 06:16:47;;;;;;;11.25;5.38;;;20.40;99.90;;;;;;4959479;29;20027;-86
2022/08/24 06:19:16;;;;;;;17.95;5.68;;;20.50;99.90;;;;;;4958930;29;20055;-87
2022/08/24 06:21:45;;;;;;;9.77;5.82;;;20.50;99.90;;;;;;4943728;29;20034;-86
2022/08/24 06:24:14;;;;;;;10.30;6.03;;;20.60;99.90;;;;;;4958898;29;20024;-85
2022/08/24 06:29:27;;;;;;;10.73;6.55;;;20.80;99.90;;;;;;4975023;28;20055;-85
2022/08/24 06:31:57;;;;;;;9.35;5.70;;;21.00;99.90;;;;;;4928513;29;20043;-84
2022/08/24 06:34:24;;;;;;;7.78;5.60;;;21.10;99.90;;;;;;4943300;29;20038;-84
2022/08/24 06:36:51;;;;;;;10.10;5.43;;;21.20;99.90;;;;;;4931006;29;20031;-86
2022/08/24 06:39:20;;;;;;;10.23;6.10;;;21.30;99.90;;;;;;4950638;28;20030;-86
2022/08/24 06:41:46;;;;;;;7.70;5.65;;;21.50;99.90;;;;;;4960172;28;20023;-84
2022/08/24 06:44:18;;;;;;;13.30;6.18;;;21.60;99.90;;;;;;4952059;29;20032;-85
2022/08/24 06:46:51;;;;;;;10.15;5.93;;;21.70;99.90;;;;;;4950842;29;20038;-84
2022/08/24 06:49:18;;;;;;;8.40;6.10;;;21.90;99.90;;;;;;4966413;29;20031;-86
2022/08/24 06:51:44;;;;;;;9.88;5.88;;;22.00;99.90;;;;;;4965410;29;20019;-85
2022/08/24 06:54:10;;;;;;;8.93;6.07;;;22.10;99.90;;;;;;5039000;23;20031;-83
2022/08/24 06:56:37;;;;;;;8.98;6.30;;;22.30;99.90;;;;;;4993581;28;20142;-84
2022/08/24 06:59:04;;;;;;;8.02;5.93;;;22.20;99.90;;;;;;4993812;28;20462;-85
2022/08/24 07:01:31;;;;;;;14.70;6.20;;;22.10;99.90;;;;;;4986737;28;20042;-83
2022/08/24 07:03:59;;;;;;;9.35;6.10;;;22.00;99.90;;;;;;4988136;28;20384;-84
2022/08/24 07:06:43;;;;;;;9.93;6.70;;;22.00;99.90;;;;;;5005267;28;20030;-84
2022/08/24 07:09:09;;;;;;;8.38;5.53;;;22.00;99.90;;;;;;4998406;28;20031;-86
2022/08/24 07:11:35;;;;;;;9.55;5.80;;;22.00;99.90;;;;;;4988043;28;20069;-84
2022/08/24 07:14:03;;;;;;;9.90;5.90;;;22.00;99.90;;;;;;4987298;28;20049;-85
2022/08/24 07:16:30;;;;;;;9.05;5.60;;;22.10;99.90;;;;;;4973685;28;20010;-85
2022/08/24 07:19:01;;;;;;;9.68;5.72;;;22.10;99.90;;;;;;4984330;28;20062;-87
2022/08/24 07:21:28;;;;;;;16.52;5.50;;;22.30;99.90;;;;;;4959328;28;20109;-85
2022/08/24 07:23:56;;;;;;;12.82;5.55;;;22.30;99.90;;;;;;4975977;28;20044;-87
2022/08/24 07:26:26;;;;;;;8.55;5.00;;;22.30;99.90;;;;;;4974396;28;20050;-87
2022/08/24 07:29:03;;;;;;;8.45;4.90;;;22.20;99.90;;;;;;4974168;28;20026;-87
2022/08/24 07:31:38;;;;;;;6.50;4.93;;;22.20;99.90;;;;;;4957494;28;20191;-88
2022/08/24 07:34:12;;;;;;;8.88;5.70;;;22.30;99.90;;;;;;4960718;28;20077;-89
2022/08/24 07:36:42;;;;;;;9.05;5.43;;;22.40;99.90;;;;;;4975382;28;20034;-89
2022/08/24 07:39:08;;;;;;;7.40;5.20;;;22.50;99.90;;;;;;4975061;28;20510;-88
2022/08/24 07:41:40;;;;;;;9.88;5.22;;;22.60;99.90;;;;;;4972599;28;20054;-88
2022/08/24 07:44:07;;;;;;;6.45;5.28;;;22.90;99.90;;;;;;4972062;28;20048;-86
2022/08/24 07:46:34;;;;;;;6.97;4.65;;;23.00;99.90;;;;;;4972472;28;20031;-87
2022/08/24 07:49:02;;;;;;;7.30;5.88;;;23.20;99.90;;;;;;4972548;28;20038;-87
2022/08/24 07:51:28;;;;;;;7.95;5.47;;;23.20;99.90;;;;;;4973363;28;20027;-86
2022/08/24 07:53:54;;;;;;;7.03;5.40;;;23.20;99.90;;;;;;4972480;28;20039;-88
2022/08/24 07:56:27;;;;;;;7.80;5.35;;;23.20;99.90;;;;;;4972346;28;20026;-88
2022/08/24 07:58:54;;;;;;;7.20;5.07;;;23.10;99.90;;;;;;4971521;28;20030;-86
2022/08/24 08:01:23;;;;;;;11.88;5.72;;;23.20;99.90;;;;;;4973941;28;20034;-87
2022/08/24 08:03:50;;;;;;;8.50;5.80;;;23.40;99.90;;;;;;4975868;28;20023;-87
2022/08/24 08:06:18;;;;;;;7.72;5.57;;;23.40;99.90;;;;;;4960281;28;20114;-85
2022/08/24 08:08:46;;;;;;;10.05;6.22;;;23.40;99.90;;;;;;4957455;28;20030;-87
2022/08/24 08:11:12;;;;;;;9.60;6.75;;;23.40;99.90;;;;;;4958715;28;20090;-87
2022/08/24 08:13:39;;;;;;;9.18;6.13;;;23.50;99.90;;;;;;4958684;28;20090;-87
2022/08/24 08:16:07;;;;;;;7.10;5.95;;;23.70;99.90;;;;;;4973722;28;20034;-87
2022/08/24 08:18:34;;;;;;;6.60;5.10;;;23.90;99.90;;;;;;4972712;28;20049;-88
2022/08/24 08:24:13;;;;;;;8.32;4.93;;;24.00;99.90;;;;;;4971433;28;20050;-86
2022/08/24 08:26:41;;;;;;;6.60;4.43;;;24.20;99.90;;;;;;4971422;28;20065;-87
2022/08/24 08:29:32;;;;;;;7.53;5.43;;;24.40;99.90;;;;;;4990379;28;20031;-86
2022/08/24 08:31:58;;;;;;;7.45;5.35;;;24.40;99.90;;;;;;4972648;28;20031;-88
2022/08/24 08:34:25;;;;;;;6.65;5.10;;;24.70;99.90;;;;;;4971124;28;20023;-87
2022/08/24 08:36:52;;;;;;;6.30;5.00;;;25.00;99.90;;;;;;4953872;28;20046;-86
2022/08/24 08:39:20;;;;;;;6.38;4.80;;;25.10;99.90;;;;;;4970633;28;20038;-86
2022/08/24 08:42:20;;;;;;;11.77;5.40;;;25.20;99.90;;;;;;4955189;28;20031;-87
2022/08/24 08:45:23;;;;;;;7.75;4.65;;;25.10;99.90;;;;;;4978234;28;20035;-87
2022/08/24 08:48:19;;;;;;;8.02;5.78;;;25.10;99.90;;;;;;4970854;28;20035;-87
2022/08/24 08:51:17;;;;;;;7.00;5.03;;;25.10;99.90;;;;;;4972136;28;20027;-88
2022/08/24 08:54:03;;;;;;;6.10;4.75;;;25.20;99.90;;;;;;4959308;28;20090;-86
2022/08/24 08:57:08;;;;;;;5.90;4.65;;;25.10;99.90;;;;;;4961589;28;20062;-88
2022/08/24 08:59:34;;;;;;;8.80;5.13;;;25.10;99.90;;;;;;4913726;28;20085;-85
2022/08/24 09:02:06;;;;;;;8.55;4.57;;;25.40;99.90;;;;;;4982234;28;20070;-86
2022/08/24 09:05:14;;;;;;;6.18;5.10;;;25.40;99.90;;;;;;4980725;28;20041;-87
2022/08/24 09:07:47;;;;;;;6.80;5.78;;;25.30;99.90;;;;;;4978946;28;20049;-86
2022/08/24 09:10:31;;;;;;;7.13;5.28;;;25.20;99.90;;;;;;4976242;28;20038;-88
2022/08/24 09:13:07;;;;;;;8.25;5.07;;;25.50;99.90;;;;;;4976100;28;20058;-87
2022/08/24 09:15:42;;;;;;;6.70;5.13;;;25.70;99.90;;;;;;4961621;28;20041;-85
2022/08/24 09:18:15;;;;;;;8.68;5.28;;;25.80;99.90;;;;;;4956856;28;20095;-87
2022/08/24 09:21:13;;;;;;;7.78;5.45;;;26.10;99.90;;;;;;4990297;28;20042;-85
2022/08/24 09:24:14;;;;;;;7.50;4.75;;;26.10;99.90;;;;;;4981505;28;20021;-87
2022/08/24 09:27:00;;;;;;;10.68;5.53;;;26.20;99.90;;;;;;4935628;28;20046;-87
2022/08/24 09:29:46;;;;;;;8.52;4.85;;;27.00;99.90;;;;;;4978131;28;20082;-87
2022/08/24 09:32:34;;;;;;;7.88;5.50;;;27.60;99.90;;;;;;4981051;28;20039;-85
2022/08/24 09:35:17;;;;;;;5.80;5.15;;;27.40;99.90;;;;;;4981561;28;20022;-86
2022/08/24 09:38:04;;;;;;;8.35;5.18;;;27.40;99.90;;;;;;4964949;28;20045;-87
2022/08/24 09:40:53;;;;;;;6.35;4.78;;;28.10;99.90;;;;;;4965009;28;20055;-87
2022/08/24 09:43:58;;;;;;;6.07;4.85;;;29.30;99.90;;;;;;4964093;28;20046;-87
2022/08/24 09:47:11;;;;;;;6.05;4.75;;;30.50;99.90;;;;;;4978704;28;20041;-89
2022/08/24 09:49:59;;;;;;;6.60;4.82;;;31.80;97.90;;;;;;4976106;28;20031;-89
2022/08/24 09:52:58;;;;;;;4.88;4.18;;;33.30;95.20;;;;;;4978048;28;20030;-88
2022/08/24 09:56:09;;;;;;;7.32;4.75;;;33.30;93.90;;;;;;4977407;28;20054;-85
2022/08/24 09:58:56;;;;;;;8.48;5.68;;;33.30;93.40;;;;;;4960467;28;20073;-87
2022/08/24 10:02:06;;;;;;;7.10;4.22;;;33.40;93.40;;;;;;4976337;28;20023;-85
2022/08/24 10:04:58;;;;;;;5.78;4.45;;;33.70;92.50;;;;;;4959075;28;20259;-87
2022/08/24 10:07:54;;;;;;;5.95;4.50;;;34.10;92.00;;;;;;4960828;28;20125;-88
2022/08/24 10:11:20;;;;;;;;;;;;;;;;;;;;;
2022/08/24 10:18:09;;;;;;;14.98;5.25;;;31.80;92.80;;;;;;4992084;28;20043;-86
2022/08/24 10:20:47;;;;;;;7.43;5.45;;;30.50;94.50;;;;;;4979078;28;20074;-88
2022/08/24 10:23:31;;;;;;;7.93;4.88;;;30.20;94.90;;;;;;4980270;28;20027;-87
2022/08/24 10:26:15;;;;;;;7.07;4.93;;;32.10;93.20;;;;;;4980328;28;20050;-85
2022/08/24 10:29:16;;;;;;;6.78;5.05;;;32.20;91.80;;;;;;4980383;28;20243;-87
2022/08/24 10:32:04;;;;;;;7.00;4.88;;;32.10;92.20;;;;;;4961211;28;20030;-87
2022/08/24 10:34:53;;;;;;;7.15;5.45;;;33.20;91.10;;;;;;4965357;28;20034;-89
2022/08/24 10:37:44;;;;;;;7.13;5.95;;;32.60;91.50;;;;;;4983070;28;20057;-88
2022/08/24 10:40:33;;;;;;;6.50;5.45;;;31.70;92.20;;;;;;4968530;28;20062;-89
2022/08/24 10:43:50;;;;;;;7.10;5.35;;;31.30;92.90;;;;;;4982729;28;20050;-88
2022/08/24 10:46:37;;;;;;;8.13;5.95;;;31.60;92.80;;;;;;4983034;28;20038;-88
2022/08/24 10:50:00;;;;;;;6.55;5.15;;;31.20;92.90;;;;;;4966018;28;20023;-87
2022/08/24 10:55:31;;;;;;;8.27;5.60;;;33.50;91.20;;;;;;5126442;27;1403793;-88
2022/08/24 10:58:27;;;;;;;13.48;5.68;;;34.90;90.00;;;;;;5132237;28;20035;-86
2022/08/24 11:00:53;;;;;;;7.45;5.20;;;35.60;88.40;;;;;;5134256;28;20031;-87
2022/08/24 11:03:25;;;;;;;9.13;5.78;;;36.40;85.20;;;;;;5134058;28;20007;-88
2022/08/24 11:05:56;;;;;;;10.05;5.97;;;36.90;83.20;;;;;;5152499;27;20031;-89
2022/08/24 11:08:24;;;;;;;6.07;5.05;;;37.90;80.00;;;;;;5151186;28;20023;-88
2022/08/24 11:11:10;;;;;;;9.02;5.80;;;37.60;78.30;;;;;;5152802;28;20106;-88
2022/08/24 11:13:48;;;;;;;8.30;5.10;;;37.90;77.40;;;;;;5133846;28;20032;-89
2022/08/24 11:16:24;;;;;;;9.35;5.78;;;38.50;76.00;;;;;;5148285;27;20023;-87
2022/08/24 11:18:56;;;;;;;7.22;5.18;;;40.00;73.60;;;;;;5146234;28;20024;-87
2022/08/24 11:21:39;;;;;;;8.48;5.50;;;39.50;71.20;;;;;;5148271;28;20035;-88
2022/08/24 11:24:10;;;;;;;8.15;5.13;;;39.00;71.30;;;;;;5147744;28;20030;-88
2022/08/24 11:27:07;;;;;;;7.45;5.90;;;37.90;71.70;;;;;;5132557;28;20035;-86
2022/08/24 11:29:48;;;;;;;6.47;5.15;;;36.10;74.50;;;;;;5121667;27;20036;-88
2022/08/24 11:32:46;;;;;;;10.23;5.68;;;35.60;75.90;;;;;;5131066;28;20038;-87
2022/08/24 11:35:26;;;;;;;7.00;5.25;;;35.90;76.00;;;;;;5149200;28;20032;-87
2022/08/24 11:38:22;;;;;;;8.23;5.57;;;37.20;73.90;;;;;;5150416;28;20020;-87
2022/08/24 11:41:07;;;;;;;6.72;5.47;;;38.20;72.10;;;;;;5136895;28;20051;-86
2022/08/24 11:43:51;;;;;;;8.30;6.15;;;38.70;71.50;;;;;;5137742;28;20050;-87
2022/08/24 11:46:31;;;;;;;5.85;4.82;;;39.50;69.10;;;;;;5154075;28;20031;-88
2022/08/24 11:49:22;;;;;;;5.55;4.57;;;40.30;67.60;;;;;;5150659;28;20432;-88
2022/08/24 11:52:44;;;;;;;8.75;5.47;;;41.20;66.50;;;;;;5114425;27;20050;-87
2022/08/24 11:55:55;;;;;;;6.95;5.55;;;40.80;65.20;;;;;;5032692;28;20029;-88
2022/08/24 11:58:53;;;;;;;6.07;5.22;;;39.60;66.30;;;;;;5049617;28;20033;-87
2022/08/24 12:01:33;;;;;;;6.38;5.28;;;39.10;66.50;;;;;;5133033;28;20082;-88
2022/08/24 12:04:19;;;;;;;7.10;5.90;;;38.50;67.50;;;;;;5153109;27;20060;-86
2022/08/24 12:07:08;;;;;;;7.55;5.70;;;37.90;67.70;;;;;;5119311;28;20111;-87
2022/08/24 12:10:13;;;;;;;7.43;5.63;;;37.10;69.00;;;;;;5129467;28;20031;-87
2022/08/24 12:12:51;;;;;;;7.22;5.30;;;37.50;68.50;;;;;;5140043;28;20051;-86
2022/08/24 12:15:38;;;;;;;6.43;5.43;;;38.30;67.60;;;;;;5140701;28;20043;-87
2022/08/24 12:18:20;;;;;;;6.85;5.57;;;38.90;66.00;;;;;;5139458;28;20011;-86
2022/08/24 12:20:48;;;;;;;7.75;5.35;;;39.30;65.40;;;;;;5140283;28;20115;-86
2022/08/24 12:23:14;;;;;;;8.88;5.30;;;39.50;64.60;;;;;;5140747;28;20028;-85
2022/08/24 12:26:01;;;;;;;7.72;5.53;;;39.30;64.50;;;;;;5123159;28;20015;-85
2022/08/24 12:28:43;;;;;;;6.82;5.35;;;39.00;65.10;;;;;;5121965;28;20019;-88
2022/08/24 12:31:29;;;;;;;5.47;4.93;;;38.80;65.20;;;;;;5140161;28;20028;-86
2022/08/24 12:34:00;;;;;;;6.40;5.03;;;38.80;64.70;;;;;;5137605;28;20419;-88
2022/08/24 12:36:37;;;;;;;8.60;5.60;;;38.90;65.20;;;;;;5119893;28;20086;-87
2022/08/24 12:39:17;;;;;;;7.18;5.18;;;39.40;64.60;;;;;;5137244;28;20046;-86
2022/08/24 12:42:16;;;;;;;5.65;4.97;;;39.70;64.20;;;;;;5120372;28;20092;-87
2022/08/24 12:44:52;;;;;;;8.65;5.15;;;39.80;63.60;;;;;;5135495;28;20030;-88
2022/08/24 12:47:41;;;;;;;6.97;5.32;;;40.20;62.70;;;;;;5133829;28;20042;-86
2022/08/24 12:50:15;;;;;;;6.82;5.65;;;40.40;62.70;;;;;;5115931;28;20034;-88
2022/08/24 12:55:40;;;;;;;6.82;5.40;;;40.90;62.50;;;;;;5023975;28;19926;-81
2022/08/24 12:58:09;;;;;;;12.13;5.47;;;41.00;62.00;;;;;;5023276;28;20018;-82
2022/08/24 13:00:45;;;;;;;6.13;4.43;;;41.00;61.90;;;;;;5025223;28;20029;-81
2022/08/24 13:03:33;;;;;;;5.65;5.05;;;40.80;61.80;;;;;;5019690;28;20046;-80
2022/08/24 13:06:25;;;;;;;7.07;4.80;;;41.00;61.40;;;;;;5007661;28;20046;-81
2022/08/24 13:09:03;;;;;;;8.35;4.95;;;41.20;61.20;;;;;;5009136;28;20037;-81
2022/08/24 13:11:33;;;;;;;5.30;4.70;;;41.40;60.60;;;;;;5009920;28;20054;-81
2022/08/24 13:14:19;;;;;;;8.35;4.97;;;42.00;60.40;;;;;;5010280;28;20512;-83
2022/08/24 13:17:08;;;;;;;7.90;5.38;;;42.60;59.80;;;;;;5003988;28;20034;-82
2022/08/24 13:19:43;;;;;;;8.52;4.75;;;42.30;59.70;;;;;;5010564;28;20514;-81
2022/08/24 13:22:09;;;;;;;8.75;5.72;;;41.20;60.30;;;;;;5005088;28;20022;-83
2022/08/24 13:24:36;;;;;;;5.78;4.90;;;40.20;60.80;;;;;;5000774;28;20103;-83
2022/08/24 13:27:11;;;;;;;6.72;4.90;;;39.60;62.00;;;;;;5000535;28;20032;-83
2022/08/24 13:29:45;;;;;;;6.05;4.90;;;39.70;61.50;;;;;;5000456;28;20376;-83
2022/08/24 13:32:21;;;;;;;;;;;40.00;61.10;;;;;;5003346;28;20030;-82
2022/08/24 13:34:50;;;;;;;5.53;4.05;;;40.40;60.60;;;;;;5002286;28;19898;-82
2022/08/24 13:37:22;;;;;;;5.78;4.70;;;40.40;60.80;;;;;;4999989;28;20475;-81
2022/08/24 13:40:18;;;;;;;6.05;4.90;;;40.20;61.00;;;;;;5001275;28;20038;-82
2022/08/24 13:43:15;;;;;;;7.43;5.22;;;39.10;62.60;;;;;;5002227;28;20470;-82